createdAt,value
2019-06-15T00:00:21.930Z,19.98
2019-06-15T00:01:21.724Z,19.88
2019-06-15T00:02:21.847Z,19.82
2019-06-15T00:03:21.586Z,19.86
2019-06-15T00:04:21.655Z,19.91
2019-06-15T00:05:21.436Z,19.83
2019-06-15T00:06:21.566Z,19.88
2019-06-15T00:07:21.291Z,19.90
2019-06-15T00:08:21.372Z,19.93
2019-06-15T00:09:21.144Z,19.87
2019-06-15T00:10:21.300Z,19.97
2019-06-15T00:11:20.999Z,19.95
2019-06-15T00:12:21.094Z,19.98
2019-06-15T00:13:20.863Z,20.00
2019-06-15T00:14:21.004Z,20.01
2019-06-15T00:15:20.712Z,19.98
2019-06-15T00:16:20.811Z,20.06
2019-06-15T00:17:20.568Z,20.06
2019-06-15T00:18:20.648Z,20.06
2019-06-15T00:19:20.427Z,20.05
2019-06-15T00:20:20.538Z,20.00
2019-06-15T00:21:20.277Z,20.03
2019-06-15T00:22:20.357Z,19.80
2019-06-15T00:23:20.144Z,19.76
2019-06-15T00:24:32.268Z,19.69
2019-06-15T00:25:19.987Z,19.63
2019-06-15T00:26:20.065Z,19.51
2019-06-15T00:27:19.841Z,19.51
2019-06-15T00:28:19.978Z,19.48
2019-06-15T00:29:19.708Z,19.54
2019-06-15T00:30:19.783Z,19.57
2019-06-15T00:31:19.553Z,19.50
2019-06-15T00:32:19.707Z,19.54
2019-06-15T00:33:19.411Z,19.46
2019-06-15T00:34:19.501Z,19.51
2019-06-15T00:35:19.264Z,19.50
2019-06-15T00:36:19.418Z,19.60
2019-06-15T00:37:19.113Z,19.58
2019-06-15T00:38:19.233Z,19.57
2019-06-15T00:39:18.986Z,19.68
2019-06-15T00:40:19.036Z,19.65
2019-06-15T00:41:18.827Z,19.73
2019-06-15T00:42:18.947Z,19.72
2019-06-15T00:43:18.683Z,19.71
2019-06-15T00:44:18.751Z,19.71
2019-06-15T00:45:18.540Z,19.65
2019-06-15T00:46:18.667Z,19.64
2019-06-15T00:47:18.394Z,19.72
2019-06-15T00:48:18.473Z,19.72
2019-06-15T00:49:18.240Z,19.79
2019-06-15T00:50:18.387Z,19.75
2019-06-15T00:51:18.108Z,19.82
2019-06-15T00:52:18.193Z,19.91
2019-06-15T00:53:17.968Z,19.91
2019-06-15T00:54:18.124Z,19.86
2019-06-15T00:55:17.808Z,19.78
2019-06-15T00:56:17.816Z,19.71
2019-06-15T00:57:17.666Z,19.69
2019-06-15T00:58:17.730Z,19.64
2019-06-15T00:59:17.527Z,19.65
2019-06-15T01:00:17.641Z,19.63
2019-06-15T01:01:17.372Z,19.64
2019-06-15T01:02:17.460Z,19.61
2019-06-15T01:03:17.228Z,19.54
2019-06-15T01:04:17.357Z,19.50
2019-06-15T01:05:17.081Z,19.48
2019-06-15T01:06:17.170Z,19.57
2019-06-15T01:07:16.941Z,19.53
2019-06-15T01:08:16.984Z,19.50
2019-06-15T01:09:16.799Z,19.53
2019-06-15T01:10:16.789Z,19.53
2019-06-15T01:11:16.654Z,19.50
2019-06-15T01:12:16.698Z,19.50
2019-06-15T01:13:16.504Z,19.46
2019-06-15T01:14:16.510Z,19.38
2019-06-15T01:15:16.360Z,19.33
2019-06-15T01:16:16.416Z,19.31
2019-06-15T01:17:16.216Z,19.32
2019-06-15T01:18:16.236Z,19.27
2019-06-15T01:19:16.070Z,19.32
2019-06-15T01:20:16.032Z,19.33
2019-06-15T01:21:15.921Z,19.33
2019-06-15T01:22:15.944Z,19.40
2019-06-15T01:23:15.773Z,19.32
2019-06-15T01:24:15.753Z,19.36
2019-06-15T01:25:15.637Z,19.35
2019-06-15T01:26:15.667Z,19.27
2019-06-15T01:27:15.488Z,19.36
2019-06-15T01:28:15.479Z,19.39
2019-06-15T01:29:15.345Z,19.45
2019-06-15T01:30:15.387Z,19.39
2019-06-15T01:31:15.191Z,19.48
2019-06-15T01:32:15.193Z,19.48
2019-06-15T01:33:15.067Z,19.45
2019-06-15T01:34:15.111Z,19.42
2019-06-15T01:35:14.897Z,19.38
2019-06-15T01:36:14.922Z,19.45
2019-06-15T01:37:14.759Z,19.33
2019-06-15T01:38:14.733Z,19.24
2019-06-15T01:39:14.616Z,19.15
2019-06-15T01:40:14.638Z,19.09
2019-06-15T01:41:14.476Z,19.08
2019-06-15T01:42:14.448Z,18.97
2019-06-15T01:43:14.330Z,19.02
2019-06-15T01:44:14.359Z,18.95
2019-06-15T01:45:14.179Z,18.99
2019-06-15T01:46:14.177Z,19.09
2019-06-15T01:47:14.031Z,19.08
2019-06-15T01:48:14.082Z,19.01
2019-06-15T01:49:13.883Z,19.06
2019-06-15T01:50:13.887Z,19.13
2019-06-15T01:51:13.733Z,19.08
2019-06-15T01:52:13.842Z,19.24
2019-06-15T01:53:13.605Z,19.17
2019-06-15T01:54:13.604Z,19.23
2019-06-15T01:55:20.808Z,19.25
2019-06-15T01:56:13.416Z,19.32
2019-06-15T01:57:13.292Z,19.31
2019-06-15T01:58:13.325Z,19.35
2019-06-15T01:59:13.152Z,19.25
2019-06-15T02:00:13.137Z,19.46
2019-06-15T02:01:13.001Z,19.45
2019-06-15T02:02:13.050Z,19.46
2019-06-15T02:03:12.864Z,19.42
2019-06-15T02:04:12.936Z,19.45
2019-06-15T02:05:12.720Z,19.51
2019-06-15T02:06:13.876Z,19.54
2019-06-15T02:07:12.577Z,19.53
2019-06-15T02:08:12.580Z,19.53
2019-06-15T02:09:12.418Z,19.55
2019-06-15T02:10:12.494Z,19.51
2019-06-15T02:11:12.277Z,19.45
2019-06-15T02:12:12.295Z,19.48
2019-06-15T02:13:12.337Z,19.45
2019-06-15T02:14:12.116Z,19.42
2019-06-15T02:15:11.992Z,19.38
2019-06-15T02:16:12.030Z,19.39
2019-06-15T02:17:11.830Z,19.25
2019-06-15T02:18:11.832Z,19.33
2019-06-15T02:19:11.687Z,19.25
2019-06-15T02:20:11.755Z,19.36
2019-06-15T02:21:11.551Z,19.28
2019-06-15T02:22:11.550Z,19.31
2019-06-15T02:23:11.408Z,19.31
2019-06-15T02:24:11.460Z,19.32
2019-06-15T02:25:11.250Z,19.27
2019-06-15T02:26:11.273Z,19.31
2019-06-15T02:27:11.102Z,19.24
2019-06-15T02:28:11.181Z,19.28
2019-06-15T02:29:10.959Z,19.23
2019-06-15T02:30:10.991Z,19.14
2019-06-15T02:31:10.811Z,19.08
2019-06-15T02:32:10.802Z,19.05
2019-06-15T02:33:10.680Z,18.98
2019-06-15T02:34:10.711Z,18.90
2019-06-15T02:35:10.518Z,18.83
2019-06-15T02:36:10.519Z,18.80
2019-06-15T02:37:10.379Z,18.79
2019-06-15T02:38:10.433Z,18.68
2019-06-15T02:39:10.233Z,18.68
2019-06-15T02:40:10.249Z,18.74
2019-06-15T02:41:10.077Z,18.65
2019-06-15T02:42:10.166Z,18.68
2019-06-15T02:43:10.020Z,18.67
2019-06-15T02:44:09.961Z,18.73
2019-06-15T02:45:09.806Z,18.80
2019-06-15T02:46:09.768Z,18.83
2019-06-15T02:47:09.645Z,18.83
2019-06-15T02:48:09.683Z,18.80
2019-06-15T02:49:09.489Z,18.73
2019-06-15T02:50:09.487Z,18.82
2019-06-15T02:51:09.354Z,18.77
2019-06-15T02:52:09.407Z,18.68
2019-06-15T02:53:09.199Z,18.67
2019-06-15T02:54:09.209Z,18.61
2019-06-15T02:55:09.055Z,18.64
2019-06-15T02:56:09.090Z,18.55
2019-06-15T02:57:08.905Z,18.57
2019-06-15T02:58:08.930Z,18.39
2019-06-15T02:59:08.764Z,18.40
2019-06-15T03:00:08.843Z,18.40
2019-06-15T03:01:08.622Z,18.46
2019-06-15T03:02:08.650Z,18.46
2019-06-15T03:03:08.465Z,18.44
2019-06-15T03:04:08.462Z,18.44
2019-06-15T03:05:08.322Z,18.46
2019-06-15T03:06:08.372Z,18.39
2019-06-15T03:07:08.173Z,18.27
2019-06-15T03:08:08.182Z,18.25
2019-06-15T03:09:08.026Z,18.18
2019-06-15T03:10:08.096Z,18.11
2019-06-15T03:11:07.880Z,18.22
2019-06-15T03:12:07.911Z,18.25
2019-06-15T03:13:07.729Z,18.18
2019-06-15T03:14:07.816Z,18.21
2019-06-15T03:15:07.599Z,18.18
2019-06-15T03:16:07.625Z,18.21
2019-06-15T03:17:07.438Z,18.13
2019-06-15T03:18:07.433Z,18.18
2019-06-15T03:19:07.292Z,18.31
2019-06-15T03:20:07.354Z,18.24
2019-06-15T03:21:07.143Z,18.24
2019-06-15T03:22:07.149Z,18.25
2019-06-15T03:23:06.996Z,18.37
2019-06-15T03:24:07.057Z,18.27
2019-06-15T03:25:06.846Z,18.34
2019-06-15T03:26:06.873Z,18.31
2019-06-15T03:27:06.707Z,18.34
2019-06-15T03:28:07.709Z,18.24
2019-06-15T03:29:06.561Z,18.22
2019-06-15T03:30:06.597Z,18.22
2019-06-15T03:31:06.417Z,18.22
2019-06-15T03:32:06.404Z,18.22
2019-06-15T03:33:06.268Z,18.28
2019-06-15T03:34:06.322Z,18.25
2019-06-15T03:35:06.112Z,18.31
2019-06-15T03:36:06.119Z,18.31
2019-06-15T03:37:06.030Z,18.34
2019-06-15T03:38:06.033Z,18.35
2019-06-15T03:39:06.118Z,18.39
2019-06-15T03:40:05.901Z,18.37
2019-06-15T03:41:06.251Z,18.43
2019-06-15T03:42:05.793Z,18.39
2019-06-15T03:43:05.560Z,18.25
2019-06-15T03:44:05.565Z,18.37
2019-06-15T03:45:05.380Z,18.42
2019-06-15T03:46:05.402Z,18.42
2019-06-15T03:47:05.225Z,18.37
2019-06-15T03:48:05.284Z,18.42
2019-06-15T03:49:05.086Z,18.34
2019-06-15T03:50:05.090Z,18.34
2019-06-15T03:51:04.936Z,18.39
2019-06-15T03:52:05.923Z,18.35
2019-06-15T03:53:04.783Z,18.31
2019-06-15T03:54:04.815Z,18.35
2019-06-15T03:55:04.721Z,18.42
2019-06-15T03:56:17.593Z,18.40
2019-06-15T03:57:04.497Z,18.43
2019-06-15T03:58:04.544Z,18.39
2019-06-15T03:59:04.353Z,18.43
2019-06-15T04:00:04.341Z,18.42
2019-06-15T04:01:04.192Z,18.40
2019-06-15T04:02:04.259Z,18.44
2019-06-15T04:03:04.050Z,18.40
2019-06-15T04:04:04.073Z,18.47
2019-06-15T04:05:03.902Z,18.39
2019-06-15T04:06:03.977Z,18.47
2019-06-15T04:07:03.755Z,18.53
2019-06-15T04:08:03.789Z,18.53
2019-06-15T04:09:03.607Z,18.50
2019-06-15T04:10:03.696Z,18.50
2019-06-15T04:11:03.458Z,18.57
2019-06-15T04:12:03.511Z,18.61
2019-06-15T04:13:03.315Z,18.64
2019-06-15T04:14:03.327Z,18.65
2019-06-15T04:15:03.190Z,18.68
2019-06-15T04:16:03.229Z,18.67
2019-06-15T04:17:03.016Z,18.68
2019-06-15T04:18:03.030Z,18.76
2019-06-15T04:19:03.098Z,18.79
2019-06-15T04:20:02.945Z,18.90
2019-06-15T04:21:02.720Z,18.82
2019-06-15T04:22:02.770Z,18.89
2019-06-15T04:23:02.574Z,18.94
2019-06-15T04:24:02.770Z,18.94
2019-06-15T04:25:02.595Z,18.92
2019-06-15T04:26:02.482Z,18.80
2019-06-15T04:27:02.287Z,18.86
2019-06-15T04:28:02.286Z,18.84
2019-06-15T04:29:02.127Z,18.89
2019-06-15T04:30:02.201Z,18.95
2019-06-15T04:31:02.003Z,18.94
2019-06-15T04:32:02.051Z,18.92
2019-06-15T04:33:01.832Z,18.79
2019-06-15T04:34:01.917Z,18.80
2019-06-15T04:35:01.695Z,18.86
2019-06-15T04:36:01.733Z,18.98
2019-06-15T04:37:01.662Z,18.97
2019-06-15T04:38:01.641Z,18.94
2019-06-15T04:39:01.395Z,18.99
2019-06-15T04:40:01.445Z,19.01
2019-06-15T04:41:01.769Z,19.01
2019-06-15T04:42:01.260Z,19.02
2019-06-15T04:43:01.182Z,19.18
2019-06-15T04:44:01.170Z,19.15
2019-06-15T04:45:00.955Z,19.17
2019-06-15T04:46:00.980Z,19.24
2019-06-15T04:47:00.809Z,19.25
2019-06-15T04:48:00.891Z,19.31
2019-06-15T04:49:00.660Z,19.35
2019-06-15T04:50:00.706Z,19.25
2019-06-15T04:51:00.510Z,19.35
2019-06-15T04:52:00.637Z,19.38
2019-06-15T04:53:00.362Z,19.36
2019-06-15T04:54:00.413Z,19.40
2019-06-15T04:55:00.235Z,19.45
2019-06-15T04:56:00.271Z,19.50
2019-06-15T04:57:00.133Z,19.48
2019-06-15T04:58:00.148Z,19.51
2019-06-15T04:58:59.926Z,19.55
2019-06-15T04:59:59.949Z,19.58
2019-06-15T05:00:59.782Z,19.54
2019-06-15T05:01:59.858Z,19.57
2019-06-15T05:02:59.629Z,19.60
2019-06-15T05:03:59.599Z,19.61
2019-06-15T05:04:59.491Z,19.63
2019-06-15T05:05:59.583Z,19.61
2019-06-15T05:06:59.343Z,19.58
2019-06-15T05:07:59.388Z,19.68
2019-06-15T05:08:59.193Z,19.75
2019-06-15T05:09:59.305Z,19.78
2019-06-15T05:11:00.058Z,19.76
2019-06-15T05:11:59.102Z,19.79
2019-06-15T05:12:58.895Z,19.88
2019-06-15T05:13:58.916Z,19.94
2019-06-15T05:14:58.757Z,19.91
2019-06-15T05:15:58.837Z,19.90
2019-06-15T05:16:58.602Z,19.88
2019-06-15T05:17:58.639Z,19.88
2019-06-15T05:18:58.456Z,19.83
2019-06-15T05:19:58.690Z,19.88
2019-06-15T05:20:58.311Z,20.03
2019-06-15T05:21:58.365Z,19.98
2019-06-15T05:22:58.168Z,20.13
2019-06-15T05:23:58.269Z,20.26
2019-06-15T05:24:58.016Z,20.40
2019-06-15T05:25:58.072Z,20.59
2019-06-15T05:27:06.272Z,20.65
2019-06-15T05:27:57.801Z,20.79
2019-06-15T05:28:57.797Z,20.94
2019-06-15T05:29:57.654Z,21.08
2019-06-15T05:30:57.711Z,21.17
2019-06-15T05:31:57.509Z,21.31
2019-06-15T05:32:57.617Z,21.41
2019-06-15T05:33:57.371Z,21.53
2019-06-15T05:34:57.673Z,21.61
2019-06-15T05:35:57.222Z,21.70
2019-06-15T05:36:57.232Z,21.78
2019-06-15T05:37:57.074Z,21.78
2019-06-15T05:38:57.151Z,21.84
2019-06-15T05:39:56.925Z,21.94
2019-06-15T05:40:56.953Z,22.02
2019-06-15T05:41:56.776Z,22.01
2019-06-15T05:42:56.859Z,22.10
2019-06-15T05:43:56.638Z,22.13
2019-06-15T05:44:56.675Z,22.12
2019-06-15T05:45:56.493Z,22.23
2019-06-15T05:46:56.587Z,22.31
2019-06-15T05:47:56.352Z,22.32
2019-06-15T05:48:56.390Z,22.39
2019-06-15T05:49:56.303Z,22.38
2019-06-15T05:50:58.604Z,22.41
2019-06-15T05:51:56.055Z,22.60
2019-06-15T05:52:56.115Z,22.57
2019-06-15T05:53:55.909Z,22.63
2019-06-15T05:54:56.032Z,22.60
2019-06-15T05:55:55.765Z,22.57
2019-06-15T05:56:55.840Z,22.69
2019-06-15T05:57:55.631Z,22.72
2019-06-15T05:58:55.644Z,22.83
2019-06-15T05:59:55.473Z,22.71
2019-06-15T06:00:55.565Z,22.86
2019-06-15T06:01:55.333Z,22.86
2019-06-15T06:02:55.319Z,22.92
2019-06-15T06:03:55.186Z,22.92
2019-06-15T06:04:55.282Z,22.96
2019-06-15T06:05:55.044Z,22.97
2019-06-15T06:06:55.079Z,23.05
2019-06-15T06:07:54.893Z,23.00
2019-06-15T06:08:54.997Z,22.96
2019-06-15T06:09:54.805Z,22.96
2019-06-15T06:10:54.807Z,22.99
2019-06-15T06:11:54.625Z,23.04
2019-06-15T06:12:54.715Z,22.94
2019-06-15T06:13:54.477Z,22.94
2019-06-15T06:14:54.522Z,23.08
2019-06-15T06:15:54.349Z,23.12
2019-06-15T06:16:54.435Z,23.17
2019-06-15T06:17:54.181Z,23.22
2019-06-15T06:18:54.242Z,23.23
2019-06-15T06:19:54.067Z,23.17
2019-06-15T06:20:54.297Z,23.23
2019-06-15T06:21:53.902Z,23.35
2019-06-15T06:22:53.980Z,23.26
2019-06-15T06:23:53.748Z,23.29
2019-06-15T06:24:53.672Z,23.38
2019-06-15T06:25:53.791Z,23.31
2019-06-15T06:26:53.531Z,23.42
2019-06-15T06:27:53.623Z,23.38
2019-06-15T06:28:57.163Z,23.29
2019-06-15T06:29:53.499Z,23.42
2019-06-15T06:30:53.246Z,23.37
2019-06-15T06:31:53.316Z,23.40
2019-06-15T06:32:53.111Z,23.40
2019-06-15T06:33:53.224Z,23.42
2019-06-15T06:34:53.051Z,23.49
2019-06-15T06:35:53.034Z,23.52
2019-06-15T06:36:52.823Z,23.52
2019-06-15T06:37:52.946Z,23.50
2019-06-15T06:38:52.678Z,23.50
2019-06-15T06:39:52.752Z,23.52
2019-06-15T06:40:52.541Z,23.48
2019-06-15T06:41:52.561Z,23.52
2019-06-15T06:42:52.396Z,23.50
2019-06-15T06:43:52.477Z,23.46
2019-06-15T06:44:52.252Z,23.50
2019-06-15T06:45:52.284Z,23.52
2019-06-15T06:46:52.109Z,23.53
2019-06-15T06:47:52.208Z,23.52
2019-06-15T06:48:51.966Z,23.56
2019-06-15T06:49:52.012Z,23.53
2019-06-15T06:50:51.822Z,23.53
2019-06-15T06:51:51.915Z,23.53
2019-06-15T06:52:51.679Z,23.55
2019-06-15T06:53:51.725Z,23.53
2019-06-15T06:54:51.551Z,23.61
2019-06-15T06:55:51.628Z,23.53
2019-06-15T06:56:51.400Z,23.58
2019-06-15T06:57:56.078Z,23.52
2019-06-15T06:58:51.252Z,23.49
2019-06-15T06:59:51.358Z,23.58
2019-06-15T07:00:51.110Z,23.48
2019-06-15T07:01:51.045Z,23.35
2019-06-15T07:02:51.065Z,23.40
2019-06-15T07:03:50.902Z,23.35
2019-06-15T07:04:50.982Z,23.34
2019-06-15T07:05:50.760Z,23.42
2019-06-15T07:06:50.787Z,23.27
2019-06-15T07:07:50.744Z,23.20
2019-06-15T07:08:50.708Z,23.24
2019-06-15T07:09:50.477Z,23.26
2019-06-15T07:10:50.513Z,23.29
2019-06-15T07:11:50.617Z,23.38
2019-06-15T07:12:50.263Z,23.38
2019-06-15T07:13:50.185Z,23.40
2019-06-15T07:14:50.111Z,23.52
2019-06-15T07:15:50.042Z,23.58
2019-06-15T07:16:50.140Z,23.74
2019-06-15T07:17:49.904Z,23.78
2019-06-15T07:18:50.055Z,23.83
2019-06-15T07:19:50.009Z,23.85
2019-06-15T07:20:49.699Z,23.90
2019-06-15T07:21:49.766Z,23.89
2019-06-15T07:22:49.661Z,23.86
2019-06-15T07:23:49.677Z,23.89
2019-06-15T07:24:49.404Z,23.95
2019-06-15T07:25:49.487Z,23.86
2019-06-15T07:26:49.292Z,23.89
2019-06-15T07:27:49.407Z,23.97
2019-06-15T07:28:49.119Z,24.00
2019-06-15T07:29:49.208Z,24.12
2019-06-15T07:30:48.983Z,24.08
2019-06-15T07:31:49.021Z,24.16
2019-06-15T07:32:48.842Z,24.22
2019-06-15T07:33:48.925Z,24.23
2019-06-15T07:34:48.700Z,24.27
2019-06-15T07:35:48.739Z,24.27
2019-06-15T07:36:48.563Z,24.40
2019-06-15T07:37:48.492Z,24.47
2019-06-15T07:38:48.423Z,24.59
2019-06-15T07:39:48.464Z,24.75
2019-06-15T07:40:48.274Z,24.69
2019-06-15T07:41:48.222Z,24.95
2019-06-15T07:42:48.146Z,25.10
2019-06-15T07:43:48.068Z,25.01
2019-06-15T07:44:48.193Z,25.13
2019-06-15T07:45:47.927Z,25.09
2019-06-15T07:46:48.003Z,25.19
2019-06-15T07:47:47.790Z,25.25
2019-06-15T07:48:47.917Z,25.31
2019-06-15T07:49:47.643Z,25.41
2019-06-15T07:50:48.735Z,25.67
2019-06-15T07:51:47.507Z,25.70
2019-06-15T07:52:47.628Z,25.67
2019-06-15T07:53:47.366Z,25.67
2019-06-15T07:54:47.435Z,25.62
2019-06-15T07:55:47.231Z,25.74
2019-06-15T07:56:47.349Z,25.90
2019-06-15T07:57:47.087Z,25.94
2019-06-15T07:58:47.157Z,26.02
2019-06-15T07:59:46.979Z,26.08
2019-06-15T08:00:47.076Z,25.93
2019-06-15T08:01:46.814Z,25.96
2019-06-15T08:02:46.876Z,25.90
2019-06-15T08:03:46.681Z,25.86
2019-06-15T08:04:46.788Z,25.97
2019-06-15T08:05:46.535Z,25.86
2019-06-15T08:06:46.601Z,25.83
2019-06-15T08:07:46.394Z,25.97
2019-06-15T08:08:46.508Z,26.01
2019-06-15T08:09:46.266Z,26.01
2019-06-15T08:10:46.329Z,26.12
2019-06-15T08:11:46.119Z,26.20
2019-06-15T08:12:46.232Z,26.30
2019-06-15T08:13:45.983Z,26.42
2019-06-15T08:14:46.040Z,26.43
2019-06-15T08:15:45.843Z,26.57
2019-06-15T08:16:45.955Z,26.57
2019-06-15T08:17:45.867Z,26.46
2019-06-15T08:18:45.761Z,26.49
2019-06-15T08:19:45.564Z,26.52
2019-06-15T08:20:45.675Z,26.47
2019-06-15T08:21:45.502Z,26.65
2019-06-15T08:22:45.486Z,26.55
2019-06-15T08:23:45.294Z,26.53
2019-06-15T08:24:45.393Z,26.50
2019-06-15T08:25:45.154Z,26.57
2019-06-15T08:26:45.305Z,26.58
2019-06-15T08:27:45.020Z,26.60
2019-06-15T08:28:45.111Z,26.65
2019-06-15T08:29:45.038Z,26.61
2019-06-15T08:30:45.028Z,26.40
2019-06-15T08:31:44.746Z,26.50
2019-06-15T08:32:44.833Z,26.45
2019-06-15T08:33:44.610Z,26.52
2019-06-15T08:34:44.946Z,26.50
2019-06-15T08:35:44.477Z,26.32
2019-06-15T08:36:44.557Z,26.38
2019-06-15T08:37:44.339Z,26.28
2019-06-15T08:38:45.487Z,26.32
2019-06-15T08:39:44.203Z,26.38
2019-06-15T08:40:45.449Z,26.50
2019-06-15T08:41:44.065Z,26.57
2019-06-15T08:42:44.196Z,26.72
2019-06-15T08:43:43.935Z,26.83
2019-06-15T08:44:43.992Z,26.98
2019-06-15T08:45:43.792Z,27.04
2019-06-15T08:46:43.729Z,27.08
2019-06-15T08:47:44.832Z,27.17
2019-06-15T08:48:43.584Z,27.19
2019-06-15T08:49:43.530Z,27.08
2019-06-15T08:50:50.484Z,27.09
2019-06-15T08:51:43.995Z,27.07
2019-06-15T08:52:44.540Z,27.29
2019-06-15T08:53:44.629Z,27.13
2019-06-15T08:54:43.342Z,27.02
2019-06-15T08:55:43.110Z,27.02
2019-06-15T08:56:43.263Z,26.82
2019-06-15T08:57:42.983Z,26.94
2019-06-15T08:58:54.769Z,27.07
2019-06-15T08:59:42.838Z,26.98
2019-06-15T09:00:42.977Z,26.89
2019-06-15T09:01:42.707Z,26.86
2019-06-15T09:02:42.788Z,26.69
2019-06-15T09:03:42.570Z,26.71
2019-06-15T09:04:42.701Z,26.61
2019-06-15T09:05:42.436Z,26.60
2019-06-15T09:06:42.503Z,26.61
2019-06-15T09:07:42.308Z,26.58
2019-06-15T09:08:42.417Z,26.58
2019-06-15T09:09:42.172Z,26.65
2019-06-15T09:10:42.225Z,26.53
2019-06-15T09:11:42.042Z,26.64
2019-06-15T09:12:42.138Z,26.62
2019-06-15T09:13:41.898Z,26.71
2019-06-15T09:14:42.050Z,26.83
2019-06-15T09:15:41.766Z,27.02
2019-06-15T09:16:41.862Z,27.08
2019-06-15T09:17:41.641Z,27.20
2019-06-15T09:18:41.771Z,27.32
2019-06-15T09:19:41.494Z,27.17
2019-06-15T09:20:41.573Z,27.21
2019-06-15T09:21:41.366Z,27.21
2019-06-15T09:22:41.489Z,27.32
2019-06-15T09:23:41.219Z,27.41
2019-06-15T09:24:41.299Z,27.57
2019-06-15T09:25:41.092Z,27.60
2019-06-15T09:26:41.212Z,27.67
2019-06-15T09:27:40.964Z,27.64
2019-06-15T09:28:41.017Z,27.70
2019-06-15T09:29:40.815Z,27.76
2019-06-15T09:30:40.931Z,27.87
2019-06-15T09:31:40.685Z,27.89
2019-06-15T09:32:40.847Z,27.89
2019-06-15T09:33:40.549Z,27.89
2019-06-15T09:34:40.651Z,27.84
2019-06-15T09:35:40.425Z,28.06
2019-06-15T09:36:40.353Z,27.95
2019-06-15T09:37:40.366Z,27.95
2019-06-15T09:38:40.218Z,28.07
2019-06-15T09:39:40.149Z,27.99
2019-06-15T09:40:40.287Z,28.10
2019-06-15T09:41:40.020Z,28.10
2019-06-15T09:42:40.155Z,28.11
2019-06-15T09:43:40.014Z,28.17
2019-06-15T09:44:40.011Z,28.24
2019-06-15T09:45:39.750Z,28.32
2019-06-15T09:46:39.817Z,28.35
2019-06-15T09:47:39.620Z,28.35
2019-06-15T09:48:39.548Z,28.31
2019-06-15T09:49:39.630Z,28.32
2019-06-15T09:50:39.416Z,28.34
2019-06-15T09:51:39.542Z,28.36
2019-06-15T09:52:39.287Z,28.36
2019-06-15T09:53:39.423Z,28.39
2019-06-15T09:54:39.149Z,28.39
2019-06-15T09:55:39.080Z,28.32
2019-06-15T09:56:39.162Z,28.41
2019-06-15T09:57:38.952Z,28.34
2019-06-15T09:58:39.071Z,28.38
2019-06-15T09:59:38.812Z,28.39
2019-06-15T10:00:38.886Z,28.22
2019-06-15T10:01:38.691Z,28.24
2019-06-15T10:02:38.705Z,28.20
2019-06-15T10:03:38.558Z,28.26
2019-06-15T10:04:38.609Z,28.17
2019-06-15T10:05:38.421Z,28.07
2019-06-15T10:06:38.360Z,28.07
2019-06-15T10:07:38.279Z,27.98
2019-06-15T10:08:38.326Z,28.06
2019-06-15T10:09:38.148Z,28.04
2019-06-15T10:10:38.137Z,28.11
2019-06-15T10:11:38.014Z,28.06
2019-06-15T10:12:38.049Z,28.04
2019-06-15T10:13:37.885Z,27.95
2019-06-15T10:14:37.859Z,27.87
2019-06-15T10:15:37.750Z,27.91
2019-06-15T10:16:37.772Z,27.84
2019-06-15T10:17:37.622Z,27.79
2019-06-15T10:18:38.939Z,27.62
2019-06-15T10:19:37.594Z,27.51
2019-06-15T10:20:37.487Z,27.46
2019-06-15T10:21:37.393Z,27.35
2019-06-15T10:22:38.206Z,27.35
2019-06-15T10:23:37.307Z,27.39
2019-06-15T10:24:37.158Z,27.35
2019-06-15T10:25:37.219Z,27.21
2019-06-15T10:26:37.016Z,27.32
2019-06-15T10:28:36.886Z,27.19
2019-06-15T10:29:42.044Z,27.07
2019-06-15T10:30:36.755Z,26.92
2019-06-15T10:31:36.746Z,26.82
2019-06-15T10:32:36.624Z,26.71
2019-06-15T10:33:36.655Z,26.68
2019-06-15T10:34:36.543Z,26.58
2019-06-15T10:35:36.431Z,26.61
2019-06-15T10:36:36.472Z,26.50
2019-06-15T10:37:36.296Z,26.49
2019-06-15T10:38:36.283Z,26.49
2019-06-15T10:39:36.147Z,26.60
2019-06-15T10:40:36.190Z,26.65
2019-06-15T10:41:36.021Z,26.57
2019-06-15T10:42:36.001Z,26.62
2019-06-15T10:43:35.887Z,26.82
2019-06-15T10:44:35.933Z,26.71
2019-06-15T10:45:35.748Z,26.45
2019-06-15T10:46:35.724Z,26.34
2019-06-15T10:47:35.610Z,26.32
2019-06-15T10:48:35.545Z,26.30
2019-06-15T10:49:35.540Z,26.35
2019-06-15T10:50:35.414Z,26.39
2019-06-15T10:51:35.345Z,26.20
2019-06-15T10:52:35.355Z,26.32
2019-06-15T10:53:35.218Z,26.39
2019-06-15T10:54:35.266Z,26.24
2019-06-15T10:55:35.079Z,26.27
2019-06-15T10:56:35.077Z,26.20
2019-06-15T10:57:34.939Z,26.18
2019-06-15T10:58:34.988Z,26.30
2019-06-15T10:59:35.357Z,26.31
2019-06-15T11:00:34.794Z,26.35
2019-06-15T11:01:34.673Z,26.43
2019-06-15T11:02:34.726Z,26.40
2019-06-15T11:03:34.535Z,26.32
2019-06-15T11:04:34.525Z,26.16
2019-06-15T11:05:34.403Z,26.11
2019-06-15T11:06:34.431Z,26.05
2019-06-15T11:07:34.273Z,26.01
2019-06-15T11:08:34.267Z,26.07
2019-06-15T11:09:34.130Z,26.16
2019-06-15T11:10:34.156Z,26.20
2019-06-15T11:11:34.025Z,26.27
2019-06-15T11:12:45.875Z,26.34
2019-06-15T11:13:33.866Z,26.49
2019-06-15T11:14:33.801Z,26.46
2019-06-15T11:15:33.775Z,26.71
2019-06-15T11:16:33.652Z,26.89
2019-06-15T11:17:33.688Z,27.13
2019-06-15T11:18:33.534Z,27.14
2019-06-15T11:19:33.675Z,27.16
2019-06-15T11:20:33.386Z,27.26
2019-06-15T11:21:33.405Z,27.35
2019-06-15T11:22:33.311Z,27.38
2019-06-15T11:23:33.316Z,27.26
2019-06-15T11:24:33.126Z,27.20
2019-06-15T11:25:33.047Z,27.36
2019-06-15T11:26:33.028Z,27.41
2019-06-15T11:27:32.915Z,27.53
2019-06-15T11:28:32.944Z,27.79
2019-06-15T11:29:32.779Z,27.83
2019-06-15T11:30:32.850Z,27.99
2019-06-15T11:31:32.645Z,28.25
2019-06-15T11:32:32.574Z,28.17
2019-06-15T11:33:32.568Z,28.02
2019-06-15T11:34:32.439Z,27.99
2019-06-15T11:35:32.494Z,27.97
2019-06-15T11:36:32.315Z,28.07
2019-06-15T11:37:32.289Z,28.02
2019-06-15T11:38:32.174Z,28.06
2019-06-15T11:39:32.194Z,27.94
2019-06-15T11:40:32.053Z,27.87
2019-06-15T11:41:32.111Z,27.67
2019-06-15T11:42:31.948Z,27.36
2019-06-15T11:43:31.846Z,27.31
2019-06-15T11:44:31.776Z,27.32
2019-06-15T11:45:31.836Z,27.24
2019-06-15T11:46:31.643Z,27.29
2019-06-15T11:47:31.595Z,27.27
2019-06-15T11:48:31.510Z,27.38
2019-06-15T11:49:31.549Z,27.46
2019-06-15T11:50:31.398Z,27.53
2019-06-15T11:51:31.359Z,27.49
2019-06-15T11:52:31.236Z,27.49
2019-06-15T11:53:31.270Z,27.44
2019-06-15T11:54:31.111Z,27.41
2019-06-15T11:55:39.537Z,27.44
2019-06-15T11:56:30.969Z,27.53
2019-06-15T11:57:30.991Z,27.61
2019-06-15T11:58:30.837Z,27.57
2019-06-15T11:59:30.904Z,27.34
2019-06-15T12:00:31.804Z,27.27
2019-06-15T12:01:30.713Z,27.13
2019-06-15T12:02:30.576Z,26.98
2019-06-15T12:03:30.627Z,26.98
2019-06-15T12:04:30.437Z,26.95
2019-06-15T12:05:30.433Z,27.08
2019-06-15T12:06:30.307Z,27.12
2019-06-15T12:07:30.345Z,27.09
2019-06-15T12:08:30.335Z,27.20
2019-06-15T12:09:30.098Z,27.17
2019-06-15T12:10:30.038Z,27.12
2019-06-15T12:11:30.063Z,27.23
2019-06-15T12:12:29.903Z,27.13
2019-06-15T12:13:29.837Z,27.17
2019-06-15T12:14:29.882Z,27.20
2019-06-15T12:15:29.697Z,27.16
2019-06-15T12:16:29.690Z,27.04
2019-06-15T12:17:29.571Z,26.87
2019-06-15T12:18:29.601Z,26.89
2019-06-15T12:19:29.432Z,26.83
2019-06-15T12:20:29.364Z,26.82
2019-06-15T12:21:29.421Z,26.67
2019-06-15T12:22:29.248Z,26.83
2019-06-15T12:23:29.232Z,26.71
2019-06-15T12:24:29.092Z,26.58
2019-06-15T12:25:29.140Z,26.35
2019-06-15T12:26:28.966Z,26.47
2019-06-15T12:27:28.945Z,26.52
2019-06-15T12:28:28.832Z,26.55
2019-06-15T12:29:28.859Z,26.55
2019-06-15T12:30:28.698Z,26.58
2019-06-15T12:31:28.768Z,26.58
2019-06-15T12:32:28.554Z,26.65
2019-06-15T12:33:28.582Z,26.68
2019-06-15T12:34:28.424Z,26.69
2019-06-15T12:35:28.492Z,26.77
2019-06-15T12:36:28.300Z,26.87
2019-06-15T12:37:28.303Z,26.86
2019-06-15T12:38:28.150Z,26.95
2019-06-15T12:39:28.085Z,26.83
2019-06-15T12:40:28.142Z,26.94
2019-06-15T12:41:27.949Z,27.07
2019-06-15T12:42:28.041Z,27.14
2019-06-15T12:43:27.815Z,27.12
2019-06-15T12:44:27.835Z,27.19
2019-06-15T12:45:27.677Z,27.21
2019-06-15T12:46:27.749Z,27.20
2019-06-15T12:47:27.549Z,27.14
2019-06-15T12:48:27.557Z,27.16
2019-06-15T12:49:27.410Z,27.23
2019-06-15T12:50:27.466Z,27.31
2019-06-15T12:51:27.276Z,27.21
2019-06-15T12:52:27.285Z,27.01